Autopride — CQQE — position and weather

sailwx.info

Track history (hours):
 
Tides and Currents Weather Stations Pressure Air Temp Water Temp Dewpoint Dewpoint Depression Visibility Wind Speed Wind Dir Waves Ship Positions

Autopride

Last reported at 2015-Feb-26 23:26 UTC. Time now 2015-Feb-27 04:06 UTC.
Position N 43°46' W 002°13'.

Length 125 m; draft 5.5 m.

Type: Cargo ship. MMSI: 255801560.

Date/timePositionNaut miles runAvg speedWind from/ knotsBaromVisibWave heightAir tempDewpointWater temp
2015-Feb-26 23:26N 43°46' W 002°13'26 9.1
2015-Feb-26 20:33N 43°23' W 001°57'4 0.5
2015-Feb-26 12:31N 43°19' W 001°55'7 6.9
2015-Feb-26 11:33N 43°25' W 001°59'31411.6
2015-Feb-25 08:33N 47°59' W 005°40'  
2015-Feb-22 12:08N 53°33' W 003°34'5 9.6
2015-Feb-22 11:33N 53°33' W 003°25'8 8.1
2015-Feb-22 10:33N 53°32' W 003°11'8 7.6
2015-Feb-22 09:33N 53°27' W 003°01'0 0.4
2015-Feb-22 08:33N 53°27' W 003°01'0 0.0
2015-Feb-22 07:33N 53°27' W 003°01'0 0.0
2015-Feb-22 06:33N 53°27' W 003°01'0 0.0
2015-Feb-22 05:33N 53°27' W 003°01'0 0.0
2015-Feb-22 04:33N 53°27' W 003°01'0 0.0
2015-Feb-22 03:33N 53°27' W 003°01'0 0.0
2015-Feb-22 02:33N 53°27' W 003°01'0 0.0
2015-Feb-22 01:33N 53°27' W 003°01'0 0.0
2015-Feb-22 00:33N 53°27' W 003°01'0 0.0
2015-Feb-21 23:33N 53°27' W 003°01'0 0.0
2015-Feb-21 22:33N 53°27' W 003°01'0 0.0
2015-Feb-21 21:33N 53°27' W 003°01'0 0.0
2015-Feb-21 20:33N 53°27' W 003°01'0 0.0
2015-Feb-21 19:33N 53°27' W 003°01'0 0.0
2015-Feb-21 18:33N 53°27' W 003°01'0 0.4
2015-Feb-21 17:33N 53°27' W 003°01'1 1.2
2015-Feb-21 16:33N 53°28' W 003°03'7 6.6
2015-Feb-21 15:33N 53°31' W 003°12'1010.1
2015-Feb-21 14:32N 53°36' W 003°28'41 9.8
2015-Feb-21 10:18N 53°60' W 004°24'234 9.8
2015-Feb-20 10:33N 50°09' W 003°24'1616.4
2015-Feb-20 09:33N 50°12' W 002°59'6515.1
2015-Feb-20 05:14N 50°24' W 001°18'1318.8
2015-Feb-20 04:33N 50°26' W 000°58'2019.6
2015-Feb-20 03:31N 50°29' W 000°27'2617.9
2015-Feb-20 02:04N 50°35' E 000°13'916.8
2015-Feb-20 01:33N 50°37' E 000°26'1615.5
2015-Feb-20 00:33N 50°44' E 000°47'1514.5
2015-Feb-19 23:31N 50°52' E 001°07'1414.3
2015-Feb-19 22:33N 51°02' E 001°23'1716.9
2015-Feb-19 21:34N 51°12' E 001°45'1717.2
2015-Feb-19 20:33N 51°24' E 002°05'1918.7
2015-Feb-19 19:33N 51°23' E 002°35'1616.1
2015-Feb-19 18:34N 51°24' E 003°01'1918.8
2015-Feb-19 17:33N 51°25' E 003°31'7 6.6
2015-Feb-19 16:32N 51°28' E 003°41'0 0.0
2015-Feb-19 15:34N 51°28' E 003°41'0 0.0
2015-Feb-19 14:34N 51°28' E 003°41'0 0.0
2015-Feb-19 13:34N 51°28' E 003°41'0 0.0
2015-Feb-19 12:34N 51°28' E 003°41'0 0.0
2015-Feb-19 11:33N 51°28' E 003°41'0 0.0
2015-Feb-19 10:33N 51°28' E 003°41'0 0.0
2015-Feb-19 09:33N 51°28' E 003°41'1 0.9
2015-Feb-19 08:34N 51°27' E 003°40'1010.0
2015-Feb-19 07:33N 51°25' E 003°25'1616.1
2015-Feb-19 06:34N 51°23' E 002°59'1313.3
2015-Feb-19 05:34N 51°22' E 002°38'9 8.6
2015-Feb-19 04:33N 51°20' E 002°24'9 8.7
2015-Feb-19 03:34N 51°16' E 002°12'1010.5
2015-Feb-19 02:34N 51°11' E 001°58'1110.7
2015-Feb-19 01:33N 51°04' E 001°44'1110.7
2015-Feb-19 00:33N 50°57' E 001°32'1211.4
2015-Feb-18 23:31N 50°46' E 001°24'1310.8
2015-Feb-18 22:16N 50°35' E 001°11'3310.6
2015-Feb-18 19:10N 50°24' E 000°23'2810.6
2015-Feb-18 16:33N 50°28' W 000°20'1111.0
2015-Feb-18 15:33N 50°32' W 000°35'1110.8
2015-Feb-18 14:34N 50°38' W 000°50'1211.9
2015-Feb-18 13:33N 50°45' W 001°05'1111.1
2015-Feb-18 12:33N 50°51' W 001°20'3 3.4
2015-Feb-18 11:32N 50°53' W 001°23'0 0.0
2015-Feb-18 10:05N 50°53' W 001°23'0 0.0
2015-Feb-18 09:32N 50°53' W 001°23'0 0.0
2015-Feb-18 08:32N 50°53' W 001°23'2 0.2
2015-Feb-18 02:11N 50°54' W 001°26'0 0.0
2015-Feb-18 01:29N 50°54' W 001°26'0 0.0
2015-Feb-18 00:29N 50°54' W 001°26'0 0.0
2015-Feb-17 23:29N 50°54' W 001°26'0 0.0
2015-Feb-17 22:29N 50°54' W 001°26'0 0.0
2015-Feb-17 21:29N 50°54' W 001°26'0 0.0
2015-Feb-17 20:29N 50°54' W 001°26'0 0.0
2015-Feb-17 19:29N 50°54' W 001°26'0 0.0
2015-Feb-17 16:28N 50°54' W 001°26'0 0.0
2015-Feb-17 15:33N 50°54' W 001°26'0 0.2
2015-Feb-17 14:33N 50°54' W 001°25'9 8.9
2015-Feb-17 13:33N 50°46' W 001°18'1111.1
2015-Feb-17 12:33N 50°42' W 001°02'1211.8
2015-Feb-17 11:33N 50°38' W 000°45'1211.8
2015-Feb-17 10:33N 50°35' W 000°27'1212.0
2015-Feb-17 09:32N 50°33' W 000°08'1512.3
2015-Feb-17 08:17N 50°35' E 000°17'912.2
2015-Feb-17 07:33N 50°37' E 000°30'1312.5
2015-Feb-17 06:33N 50°43' E 000°47'1414.3
2015-Feb-17 05:33N 50°52' E 001°05'1616.0
2015-Feb-17 04:34N 51°03' E 001°24'1615.7
2015-Feb-17 03:34N 51°13' E 001°44'1414.2
2015-Feb-17 02:34N 51°24' E 001°58'1312.8
2015-Feb-17 01:33N 51°21' E 002°18'1312.9
2015-Feb-17 00:33N 51°23' E 002°38'1413.7
2015-Feb-16 23:33N 51°24' E 003°00'  
Track history (hours):
 
Tides and Currents Weather Stations Pressure Air Temp Water Temp Dewpoint Dewpoint Depression Visibility Wind Speed Wind Dir Waves Ship Positions

Autopride

Last reported at 2015-Feb-26 23:26 UTC. Time now 2015-Feb-27 04:06 UTC.
Position N 43°46' W 002°13'.

Length 125 m; draft 5.5 m.

Type: Cargo ship. MMSI: 255801560.

Date/timePositionNaut miles runAvg speedWind from/ knotsBaromVisibWave heightAir tempDewpointWater temp
2015-Feb-26 23:26N 43°46' W 002°13'26 9.1
2015-Feb-26 20:33N 43°23' W 001°57'4 0.5
2015-Feb-26 12:31N 43°19' W 001°55'7 6.9
2015-Feb-26 11:33N 43°25' W 001°59'31411.6
2015-Feb-25 08:33N 47°59' W 005°40'  
2015-Feb-22 12:08N 53°33' W 003°34'5 9.6
2015-Feb-22 11:33N 53°33' W 003°25'8 8.1
2015-Feb-22 10:33N 53°32' W 003°11'8 7.6
2015-Feb-22 09:33N 53°27' W 003°01'0 0.4
2015-Feb-22 08:33N 53°27' W 003°01'0 0.0
2015-Feb-22 07:33N 53°27' W 003°01'0 0.0
2015-Feb-22 06:33N 53°27' W 003°01'0 0.0
2015-Feb-22 05:33N 53°27' W 003°01'0 0.0
2015-Feb-22 04:33N 53°27' W 003°01'0 0.0
2015-Feb-22 03:33N 53°27' W 003°01'0 0.0
2015-Feb-22 02:33N 53°27' W 003°01'0 0.0
2015-Feb-22 01:33N 53°27' W 003°01'0 0.0
2015-Feb-22 00:33N 53°27' W 003°01'0 0.0
2015-Feb-21 23:33N 53°27' W 003°01'0 0.0
2015-Feb-21 22:33N 53°27' W 003°01'0 0.0
2015-Feb-21 21:33N 53°27' W 003°01'0 0.0
2015-Feb-21 20:33N 53°27' W 003°01'0 0.0
2015-Feb-21 19:33N 53°27' W 003°01'0 0.0
2015-Feb-21 18:33N 53°27' W 003°01'0 0.4
2015-Feb-21 17:33N 53°27' W 003°01'1 1.2
2015-Feb-21 16:33N 53°28' W 003°03'7 6.6
2015-Feb-21 15:33N 53°31' W 003°12'1010.1
2015-Feb-21 14:32N 53°36' W 003°28'41 9.8
2015-Feb-21 10:18N 53°60' W 004°24'234 9.8
2015-Feb-20 10:33N 50°09' W 003°24'1616.4
2015-Feb-20 09:33N 50°12' W 002°59'6515.1
2015-Feb-20 05:14N 50°24' W 001°18'1318.8
2015-Feb-20 04:33N 50°26' W 000°58'2019.6
2015-Feb-20 03:31N 50°29' W 000°27'2617.9
2015-Feb-20 02:04N 50°35' E 000°13'916.8
2015-Feb-20 01:33N 50°37' E 000°26'1615.5
2015-Feb-20 00:33N 50°44' E 000°47'1514.5
2015-Feb-19 23:31N 50°52' E 001°07'1414.3
2015-Feb-19 22:33N 51°02' E 001°23'1716.9
2015-Feb-19 21:34N 51°12' E 001°45'1717.2
2015-Feb-19 20:33N 51°24' E 002°05'1918.7
2015-Feb-19 19:33N 51°23' E 002°35'1616.1
2015-Feb-19 18:34N 51°24' E 003°01'1918.8
2015-Feb-19 17:33N 51°25' E 003°31'7 6.6
2015-Feb-19 16:32N 51°28' E 003°41'0 0.0
2015-Feb-19 15:34N 51°28' E 003°41'0 0.0
2015-Feb-19 14:34N 51°28' E 003°41'0 0.0
2015-Feb-19 13:34N 51°28' E 003°41'0 0.0
2015-Feb-19 12:34N 51°28' E 003°41'0 0.0
2015-Feb-19 11:33N 51°28' E 003°41'0 0.0
2015-Feb-19 10:33N 51°28' E 003°41'0 0.0
2015-Feb-19 09:33N 51°28' E 003°41'1 0.9
2015-Feb-19 08:34N 51°27' E 003°40'1010.0
2015-Feb-19 07:33N 51°25' E 003°25'1616.1
2015-Feb-19 06:34N 51°23' E 002°59'1313.3
2015-Feb-19 05:34N 51°22' E 002°38'9 8.6
2015-Feb-19 04:33N 51°20' E 002°24'9 8.7
2015-Feb-19 03:34N 51°16' E 002°12'1010.5
2015-Feb-19 02:34N 51°11' E 001°58'1110.7
2015-Feb-19 01:33N 51°04' E 001°44'1110.7
2015-Feb-19 00:33N 50°57' E 001°32'1211.4
2015-Feb-18 23:31N 50°46' E 001°24'1310.8
2015-Feb-18 22:16N 50°35' E 001°11'3310.6
2015-Feb-18 19:10N 50°24' E 000°23'2810.6
2015-Feb-18 16:33N 50°28' W 000°20'1111.0
2015-Feb-18 15:33N 50°32' W 000°35'1110.8
2015-Feb-18 14:34N 50°38' W 000°50'1211.9
2015-Feb-18 13:33N 50°45' W 001°05'1111.1
2015-Feb-18 12:33N 50°51' W 001°20'3 3.4
2015-Feb-18 11:32N 50°53' W 001°23'0 0.0
2015-Feb-18 10:05N 50°53' W 001°23'0 0.0
2015-Feb-18 09:32N 50°53' W 001°23'0 0.0
2015-Feb-18 08:32N 50°53' W 001°23'2 0.2
2015-Feb-18 02:11N 50°54' W 001°26'0 0.0
2015-Feb-18 01:29N 50°54' W 001°26'0 0.0
2015-Feb-18 00:29N 50°54' W 001°26'0 0.0
2015-Feb-17 23:29N 50°54' W 001°26'0 0.0
2015-Feb-17 22:29N 50°54' W 001°26'0 0.0
2015-Feb-17 21:29N 50°54' W 001°26'0 0.0
2015-Feb-17 20:29N 50°54' W 001°26'0 0.0
2015-Feb-17 19:29N 50°54' W 001°26'0 0.0
2015-Feb-17 16:28N 50°54' W 001°26'0 0.0
2015-Feb-17 15:33N 50°54' W 001°26'0 0.2
2015-Feb-17 14:33N 50°54' W 001°25'9 8.9
2015-Feb-17 13:33N 50°46' W 001°18'1111.1
2015-Feb-17 12:33N 50°42' W 001°02'1211.8
2015-Feb-17 11:33N 50°38' W 000°45'1211.8
2015-Feb-17 10:33N 50°35' W 000°27'1212.0
2015-Feb-17 09:32N 50°33' W 000°08'1512.3
2015-Feb-17 08:17N 50°35' E 000°17'912.2
2015-Feb-17 07:33N 50°37' E 000°30'1312.5
2015-Feb-17 06:33N 50°43' E 000°47'1414.3
2015-Feb-17 05:33N 50°52' E 001°05'1616.0
2015-Feb-17 04:34N 51°03' E 001°24'1615.7
2015-Feb-17 03:34N 51°13' E 001°44'1414.2
2015-Feb-17 02:34N 51°24' E 001°58'1312.8
2015-Feb-17 01:33N 51°21' E 002°18'1312.9
2015-Feb-17 00:33N 51°23' E 002°38'1413.7
2015-Feb-16 23:33N 51°24' E 003°00'  

Dump ship's entire track history